sensor_id;sensor_type;location;lat;lon;timestamp;pressure;altitude;pressure_sealevel;temperature;humidity
15884;BME280;8040;50.254;10.960;2022-08-19T00:01:10;97647.81;;;22.39;63.52
15884;BME280;8040;50.254;10.960;2022-08-19T00:03:54;97642.66;;;22.34;63.84
15884;BME280;8040;50.254;10.960;2022-08-19T00:06:38;97632.78;;;22.33;63.79
15884;BME280;8040;50.254;10.960;2022-08-19T00:09:23;97633.94;;;22.32;64.50
15884;BME280;8040;50.254;10.960;2022-08-19T00:12:07;97638.25;;;22.26;64.75
15884;BME280;8040;50.254;10.960;2022-08-19T00:14:52;97632.34;;;22.24;65.05
15884;BME280;8040;50.254;10.960;2022-08-19T00:17:38;97644.22;;;22.25;65.67
15884;BME280;8040;50.254;10.960;2022-08-19T00:20:22;97643.41;;;22.24;65.38
15884;BME280;8040;50.254;10.960;2022-08-19T00:23:06;97643.00;;;22.19;65.45
15884;BME280;8040;50.254;10.960;2022-08-19T00:25:50;97644.19;;;22.21;65.62
15884;BME280;8040;50.254;10.960;2022-08-19T00:28:35;97638.25;;;22.23;66.24
15884;BME280;8040;50.254;10.960;2022-08-19T00:31:19;97634.72;;;22.22;66.19
15884;BME280;8040;50.254;10.960;2022-08-19T00:34:04;97625.25;;;22.20;66.05
15884;BME280;8040;50.254;10.960;2022-08-19T00:36:48;97620.47;;;22.17;66.10
15884;BME280;8040;50.254;10.960;2022-08-19T00:39:32;97600.72;;;22.08;65.73
15884;BME280;8040;50.254;10.960;2022-08-19T00:42:16;97596.78;;;22.05;65.69
15884;BME280;8040;50.254;10.960;2022-08-19T00:45:00;97595.19;;;22.04;65.95
15884;BME280;8040;50.254;10.960;2022-08-19T00:47:44;97599.91;;;22.04;65.95
15884;BME280;8040;50.254;10.960;2022-08-19T00:50:28;97594.81;;;22.02;65.98
15884;BME280;8040;50.254;10.960;2022-08-19T00:53:14;97605.84;;;22.02;66.07
15884;BME280;8040;50.254;10.960;2022-08-19T00:56:00;97592.81;;;22.03;66.15
15884;BME280;8040;50.254;10.960;2022-08-19T00:58:44;97586.09;;;22.04;66.34
15884;BME280;8040;50.254;10.960;2022-08-19T01:01:28;97587.66;;;22.01;66.27
15884;BME280;8040;50.254;10.960;2022-08-19T01:04:12;97600.72;;;22.01;66.35
15884;BME280;8040;50.254;10.960;2022-08-19T01:06:56;97592.41;;;21.97;66.18
15884;BME280;8040;50.254;10.960;2022-08-19T01:09:41;97595.94;;;21.94;66.26
15884;BME280;8040;50.254;10.960;2022-08-19T01:12:25;97590.78;;;21.93;66.13
15884;BME280;8040;50.254;10.960;2022-08-19T01:15:10;97586.44;;;21.88;66.04
15884;BME280;8040;50.254;10.960;2022-08-19T01:17:54;97592.78;;;21.89;65.99
15884;BME280;8040;50.254;10.960;2022-08-19T01:20:39;97587.25;;;21.92;66.00
15884;BME280;8040;50.254;10.960;2022-08-19T01:23:23;97591.22;;;21.95;65.96
15884;BME280;8040;50.254;10.960;2022-08-19T01:26:26;97594.34;;;21.93;65.85
15884;BME280;8040;50.254;10.960;2022-08-19T01:29:11;97590.41;;;21.94;65.73
15884;BME280;8040;50.254;10.960;2022-08-19T01:31:55;97586.06;;;21.93;65.71
15884;BME280;8040;50.254;10.960;2022-08-19T01:34:40;97588.44;;;21.91;65.64
15884;BME280;8040;50.254;10.960;2022-08-19T01:37:23;97590.00;;;21.89;65.50
15884;BME280;8040;50.254;10.960;2022-08-19T01:40:08;97595.09;;;21.87;65.43
15884;BME280;8040;50.254;10.960;2022-08-19T01:42:53;97598.69;;;21.87;65.43
15884;BME280;8040;50.254;10.960;2022-08-19T01:45:38;97610.91;;;21.86;65.66
15884;BME280;8040;50.254;10.960;2022-08-19T01:48:23;97611.69;;;21.87;65.79
15884;BME280;8040;50.254;10.960;2022-08-19T01:51:08;97608.16;;;21.86;65.93
15884;BME280;8040;50.254;10.960;2022-08-19T01:53:52;97616.03;;;21.84;66.37
15884;BME280;8040;50.254;10.960;2022-08-19T01:56:36;97618.75;;;21.81;66.34
15884;BME280;8040;50.254;10.960;2022-08-19T01:59:20;97623.50;;;21.80;66.51
15884;BME280;8040;50.254;10.960;2022-08-19T02:02:06;97625.88;;;21.78;66.82
15884;BME280;8040;50.254;10.960;2022-08-19T02:04:52;97629.38;;;21.75;66.71
15884;BME280;8040;50.254;10.960;2022-08-19T02:07:36;97629.78;;;21.77;67.01
15884;BME280;8040;50.254;10.960;2022-08-19T02:10:21;97622.25;;;21.67;67.11
15884;BME280;8040;50.254;10.960;2022-08-19T02:13:05;97622.19;;;21.60;68.09
15884;BME280;8040;50.254;10.960;2022-08-19T02:15:49;97620.16;;;21.50;69.08
15884;BME280;8040;50.254;10.960;2022-08-19T02:18:33;97627.59;;;21.46;69.38
15884;BME280;8040;50.254;10.960;2022-08-19T02:21:17;97639.06;;;21.48;69.46
15884;BME280;8040;50.254;10.960;2022-08-19T02:24:02;97642.22;;;21.50;69.88
15884;BME280;8040;50.254;10.960;2022-08-19T02:26:47;97652.91;;;21.52;70.20
15884;BME280;8040;50.254;10.960;2022-08-19T02:29:30;97647.75;;;21.50;70.58
15884;BME280;8040;50.254;10.960;2022-08-19T02:32:15;97646.16;;;21.49;70.27
15884;BME280;8040;50.254;10.960;2022-08-19T02:34:59;97652.88;;;21.48;70.35
15884;BME280;8040;50.254;10.960;2022-08-19T02:37:43;97653.97;;;21.40;70.96
15884;BME280;8040;50.254;10.960;2022-08-19T02:40:50;97649.25;;;21.41;70.92
15884;BME280;8040;50.254;10.960;2022-08-19T02:43:35;97655.59;;;21.41;71.51
15884;BME280;8040;50.254;10.960;2022-08-19T02:46:22;97664.25;;;21.43;71.59
15884;BME280;8040;50.254;10.960;2022-08-19T02:49:07;97670.56;;;21.44;71.37
15884;BME280;8040;50.254;10.960;2022-08-19T02:51:51;97671.38;;;21.44;70.99
15884;BME280;8040;50.254;10.960;2022-08-19T02:54:35;97676.47;;;21.42;70.58
15884;BME280;8040;50.254;10.960;2022-08-19T02:57:19;97680.81;;;21.43;70.73
15884;BME280;8040;50.254;10.960;2022-08-19T03:00:04;97698.16;;;21.44;70.71
15884;BME280;8040;50.254;10.960;2022-08-19T03:02:48;97709.63;;;21.46;70.62
15884;BME280;8040;50.254;10.960;2022-08-19T03:05:32;97695.03;;;21.45;70.30
15884;BME280;8040;50.254;10.960;2022-08-19T03:08:16;97705.69;;;21.47;70.20
15884;BME280;8040;50.254;10.960;2022-08-19T03:11:00;97709.66;;;21.49;70.10
15884;BME280;8040;50.254;10.960;2022-08-19T03:13:44;97715.53;;;21.48;70.30
15884;BME280;8040;50.254;10.960;2022-08-19T03:16:29;97719.88;;;21.49;70.41
15884;BME280;8040;50.254;10.960;2022-08-19T03:19:13;97717.13;;;21.49;70.50
15884;BME280;8040;50.254;10.960;2022-08-19T03:21:59;97715.16;;;21.49;70.32
15884;BME280;8040;50.254;10.960;2022-08-19T03:24:42;97717.94;;;21.49;70.11
15884;BME280;8040;50.254;10.960;2022-08-19T03:27:27;97724.63;;;21.48;70.06
15884;BME280;8040;50.254;10.960;2022-08-19T03:30:12;97721.06;;;21.48;70.05
15884;BME280;8040;50.254;10.960;2022-08-19T03:32:56;97720.69;;;21.49;70.50
15884;BME280;8040;50.254;10.960;2022-08-19T03:35:40;97715.53;;;21.48;70.55
15884;BME280;8040;50.254;10.960;2022-08-19T03:38:25;97720.25;;;21.47;70.66
15884;BME280;8040;50.254;10.960;2022-08-19T03:41:11;97721.06;;;21.48;70.78
15884;BME280;8040;50.254;10.960;2022-08-19T03:43:56;97726.56;;;21.48;70.85
15884;BME280;8040;50.254;10.960;2022-08-19T03:46:41;97720.25;;;21.47;70.86
15884;BME280;8040;50.254;10.960;2022-08-19T03:49:26;97711.97;;;21.47;70.86
15884;BME280;8040;50.254;10.960;2022-08-19T03:52:11;97707.63;;;21.46;70.83
15884;BME280;8040;50.254;10.960;2022-08-19T03:54:54;97706.06;;;21.45;70.72
15884;BME280;8040;50.254;10.960;2022-08-19T03:57:38;97713.94;;;21.43;70.41
15884;BME280;8040;50.254;10.960;2022-08-19T04:00:22;97700.50;;;21.38;70.65
15884;BME280;8040;50.254;10.960;2022-08-19T04:03:06;97694.13;;;21.34;70.70
15884;BME280;8040;50.254;10.960;2022-08-19T04:05:51;97659.69;;;21.11;70.91
15884;BME280;8040;50.254;10.960;2022-08-19T04:08:35;97687.41;;;21.32;71.16
15884;BME280;8040;50.254;10.960;2022-08-19T04:11:20;97680.28;;;21.24;70.93
15884;BME280;8040;50.254;10.960;2022-08-19T04:14:05;97676.59;;;21.09;71.58
15884;BME280;8040;50.254;10.960;2022-08-19T04:16:49;97671.13;;;21.16;71.44
15884;BME280;8040;50.254;10.960;2022-08-19T04:19:33;97673.16;;;21.19;71.65
15884;BME280;8040;50.254;10.960;2022-08-19T04:22:18;97678.31;;;21.24;71.72
15884;BME280;8040;50.254;10.960;2022-08-19T04:25:02;97675.97;;;21.26;71.55
15884;BME280;8040;50.254;10.960;2022-08-19T04:27:46;97677.16;;;21.29;71.48
15884;BME280;8040;50.254;10.960;2022-08-19T04:30:30;97675.97;;;21.30;71.23
15884;BME280;8040;50.254;10.960;2022-08-19T04:33:15;97674.44;;;21.32;71.07
15884;BME280;8040;50.254;10.960;2022-08-19T04:35:59;97675.22;;;21.33;71.14
15884;BME280;8040;50.254;10.960;2022-08-19T04:38:43;97667.34;;;21.35;71.09
15884;BME280;8040;50.254;10.960;2022-08-19T04:41:28;97661.84;;;21.35;71.29
15884;BME280;8040;50.254;10.960;2022-08-19T04:44:31;97656.69;;;21.33;72.07
15884;BME280;8040;50.254;10.960;2022-08-19T04:47:16;97658.69;;;21.33;72.67
15884;BME280;8040;50.254;10.960;2022-08-19T04:50:00;97655.50;;;21.34;73.03
15884;BME280;8040;50.254;10.960;2022-08-19T04:52:45;97657.88;;;21.32;73.07
15884;BME280;8040;50.254;10.960;2022-08-19T04:55:29;97653.16;;;21.33;72.67
15884;BME280;8040;50.254;10.960;2022-08-19T04:58:12;97651.53;;;21.28;72.35
15884;BME280;8040;50.254;10.960;2022-08-19T05:00:57;97658.66;;;21.29;72.26
15884;BME280;8040;50.254;10.960;2022-08-19T05:03:43;97668.09;;;21.32;71.78
15884;BME280;8040;50.254;10.960;2022-08-19T05:06:27;97682.75;;;21.39;71.61
15884;BME280;8040;50.254;10.960;2022-08-19T05:09:12;97682.00;;;21.42;71.10
15884;BME280;8040;50.254;10.960;2022-08-19T05:11:56;97690.31;;;21.46;70.98
15884;BME280;8040;50.254;10.960;2022-08-19T05:14:39;97691.94;;;21.54;70.85
15884;BME280;8040;50.254;10.960;2022-08-19T05:17:25;97700.63;;;21.59;70.99
15884;BME280;8040;50.254;10.960;2022-08-19T05:20:09;97708.97;;;21.66;70.55
15884;BME280;8040;50.254;10.960;2022-08-19T05:23:14;97722.03;;;21.69;70.42
15884;BME280;8040;50.254;10.960;2022-08-19T05:25:59;97725.63;;;21.73;70.38
15884;BME280;8040;50.254;10.960;2022-08-19T05:28:43;97721.69;;;21.74;70.34
15884;BME280;8040;50.254;10.960;2022-08-19T05:31:27;97735.53;;;21.81;70.24
15884;BME280;8040;50.254;10.960;2022-08-19T05:34:11;97742.25;;;21.84;69.90
15884;BME280;8040;50.254;10.960;2022-08-19T05:36:56;97739.50;;;21.87;69.72
15884;BME280;8040;50.254;10.960;2022-08-19T05:39:41;97742.66;;;21.89;69.67
15884;BME280;8040;50.254;10.960;2022-08-19T05:42:25;97739.16;;;21.92;69.66
15884;BME280;8040;50.254;10.960;2022-08-19T05:45:10;97752.19;;;21.95;69.58
15884;BME280;8040;50.254;10.960;2022-08-19T05:47:54;97762.06;;;21.96;69.40
15884;BME280;8040;50.254;10.960;2022-08-19T05:50:39;97768.75;;;21.95;69.36
15884;BME280;8040;50.254;10.960;2022-08-19T05:53:23;97775.88;;;21.96;69.29
15884;BME280;8040;50.254;10.960;2022-08-19T05:56:09;97777.84;;;21.96;69.30
15884;BME280;8040;50.254;10.960;2022-08-19T05:58:53;97775.06;;;21.96;69.40
15884;BME280;8040;50.254;10.960;2022-08-19T06:01:39;97781.41;;;21.96;69.33
15884;BME280;8040;50.254;10.960;2022-08-19T06:04:23;97795.63;;;21.98;68.57
15884;BME280;8040;50.254;10.960;2022-08-19T06:07:16;97793.25;;;22.00;68.11
15884;BME280;8040;50.254;10.960;2022-08-19T06:10:00;97798.41;;;22.02;67.87
15884;BME280;8040;50.254;10.960;2022-08-19T06:12:44;97810.66;;;22.04;67.52
15884;BME280;8040;50.254;10.960;2022-08-19T06:15:28;97810.25;;;22.02;67.63
15884;BME280;8040;50.254;10.960;2022-08-19T06:18:13;97805.13;;;22.04;67.76
15884;BME280;8040;50.254;10.960;2022-08-19T06:20:57;97813.03;;;22.06;67.78
15884;BME280;8040;50.254;10.960;2022-08-19T06:23:41;97813.41;;;22.04;67.71
15884;BME280;8040;50.254;10.960;2022-08-19T06:26:26;97814.59;;;22.03;67.99
15884;BME280;8040;50.254;10.960;2022-08-19T06:29:11;97813.41;;;22.04;67.89
15884;BME280;8040;50.254;10.960;2022-08-19T06:31:57;97813.00;;;22.02;67.87
15884;BME280;8040;50.254;10.960;2022-08-19T06:34:42;97817.72;;;22.02;67.71
15884;BME280;8040;50.254;10.960;2022-08-19T06:37:26;97819.28;;;21.99;67.62
15884;BME280;8040;50.254;10.960;2022-08-19T06:40:10;97820.47;;;21.98;67.75
15884;BME280;8040;50.254;10.960;2022-08-19T06:42:56;97816.50;;;21.96;67.96
15884;BME280;8040;50.254;10.960;2022-08-19T06:45:42;97821.63;;;21.94;67.77
15884;BME280;8040;50.254;10.960;2022-08-19T06:48:26;97815.69;;;21.92;67.64
15884;BME280;8040;50.254;10.960;2022-08-19T06:51:10;97816.84;;;21.91;67.61
15884;BME280;8040;50.254;10.960;2022-08-19T06:53:54;97823.97;;;21.92;67.54
15884;BME280;8040;50.254;10.960;2022-08-19T06:56:38;97829.88;;;21.90;67.62
15884;BME280;8040;50.254;10.960;2022-08-19T06:59:23;97822.38;;;21.91;67.53
15884;BME280;8040;50.254;10.960;2022-08-19T07:02:10;97818.47;;;21.95;67.57
15884;BME280;8040;50.254;10.960;2022-08-19T07:04:54;97815.72;;;21.99;67.27
15884;BME280;8040;50.254;10.960;2022-08-19T07:07:41;97815.69;;;21.95;67.13
15884;BME280;8040;50.254;10.960;2022-08-19T07:10:27;97819.63;;;21.94;67.03
15884;BME280;8040;50.254;10.960;2022-08-19T07:13:11;97815.69;;;21.95;67.17
15884;BME280;8040;50.254;10.960;2022-08-19T07:15:55;97813.75;;;21.96;67.22
15884;BME280;8040;50.254;10.960;2022-08-19T07:18:39;97820.47;;;21.98;67.23
15884;BME280;8040;50.254;10.960;2022-08-19T07:21:24;97816.13;;;21.97;67.29
15884;BME280;8040;50.254;10.960;2022-08-19T07:24:08;97824.06;;;22.02;67.27
15884;BME280;8040;50.254;10.960;2022-08-19T07:26:53;97820.94;;;22.11;67.41
15884;BME280;8040;50.254;10.960;2022-08-19T07:29:37;97812.34;;;22.26;67.64
15884;BME280;8040;50.254;10.960;2022-08-19T07:32:21;97812.81;;;22.35;66.61
15884;BME280;8040;50.254;10.960;2022-08-19T07:35:06;97825.06;;;22.38;65.99
15884;BME280;8040;50.254;10.960;2022-08-19T07:37:50;97823.09;;;22.38;66.29
15884;BME280;8040;50.254;10.960;2022-08-19T07:40:34;97827.56;;;22.53;66.00
15884;BME280;8040;50.254;10.960;2022-08-19T07:43:18;97836.69;;;22.64;65.33
15884;BME280;8040;50.254;10.960;2022-08-19T07:46:09;97845.81;;;22.75;65.29
15884;BME280;8040;50.254;10.960;2022-08-19T07:48:53;97847.41;;;22.76;64.72
15884;BME280;8040;50.254;10.960;2022-08-19T07:51:37;97852.59;;;22.85;65.16
15884;BME280;8040;50.254;10.960;2022-08-19T07:54:22;97849.44;;;22.93;65.05
15884;BME280;8040;50.254;10.960;2022-08-19T07:57:06;97855.06;;;23.07;65.03
15884;BME280;8040;50.254;10.960;2022-08-19T07:59:50;97841.28;;;23.21;64.57
15884;BME280;8040;50.254;10.960;2022-08-19T08:02:34;97852.78;;;23.30;64.17
15884;BME280;8040;50.254;10.960;2022-08-19T08:05:18;97858.28;;;23.27;63.69
15884;BME280;8040;50.254;10.960;2022-08-19T08:08:21;97849.97;;;23.27;64.31
15884;BME280;8040;50.254;10.960;2022-08-19T08:11:21;97851.97;;;23.30;63.76
15884;BME280;8040;50.254;10.960;2022-08-19T08:14:05;97846.06;;;23.31;63.55
15884;BME280;8040;50.254;10.960;2022-08-19T08:16:50;97842.88;;;23.36;62.94
15884;BME280;8040;50.254;10.960;2022-08-19T08:19:35;97860.28;;;23.33;63.08
15884;BME280;8040;50.254;10.960;2022-08-19T08:22:20;97854.38;;;23.31;63.28
15884;BME280;8040;50.254;10.960;2022-08-19T08:25:24;97857.91;;;23.28;63.20
15884;BME280;8040;50.254;10.960;2022-08-19T08:28:08;97858.69;;;23.18;63.53
15884;BME280;8040;50.254;10.960;2022-08-19T08:30:52;97857.84;;;23.14;63.42
15884;BME280;8040;50.254;10.960;2022-08-19T08:33:37;97866.91;;;23.15;63.47
15884;BME280;8040;50.254;10.960;2022-08-19T08:36:22;97866.97;;;23.18;63.73
15884;BME280;8040;50.254;10.960;2022-08-19T08:39:06;97863.41;;;23.21;63.77
15884;BME280;8040;50.254;10.960;2022-08-19T08:41:56;97852.34;;;23.21;63.70
15884;BME280;8040;50.254;10.960;2022-08-19T08:44:43;97850.31;;;23.15;63.96
15884;BME280;8040;50.254;10.960;2022-08-19T08:47:34;97842.81;;;23.15;64.16
15884;BME280;8040;50.254;10.960;2022-08-19T08:50:23;97841.28;;;23.18;64.15
15884;BME280;8040;50.254;10.960;2022-08-19T08:53:11;97850.38;;;23.22;64.29
15884;BME280;8040;50.254;10.960;2022-08-19T08:55:58;97852.34;;;23.25;64.46
15884;BME280;8040;50.254;10.960;2022-08-19T09:01:34;97852.41;;;23.46;64.46
15884;BME280;8040;50.254;10.960;2022-08-19T09:04:19;97850.84;;;23.59;64.05
15884;BME280;8040;50.254;10.960;2022-08-19T09:09:52;97838.97;;;23.65;62.37
15884;BME280;8040;50.254;10.960;2022-08-19T09:12:48;97833.06;;;23.70;62.21
15884;BME280;8040;50.254;10.960;2022-08-19T09:15:41;97823.97;;;23.80;62.18
15884;BME280;8040;50.254;10.960;2022-08-19T09:21:27;97826.34;;;23.85;61.68
15884;BME280;8040;50.254;10.960;2022-08-19T09:24:11;97812.91;;;23.98;60.82
15884;BME280;8040;50.254;10.960;2022-08-19T09:26:56;97803.38;;;24.16;60.47
15884;BME280;8040;50.254;10.960;2022-08-19T09:29:40;97802.13;;;24.35;59.95
15884;BME280;8040;50.254;10.960;2022-08-19T09:32:24;97810.84;;;24.44;58.78
15884;BME280;8040;50.254;10.960;2022-08-19T09:35:09;97800.91;;;24.53;58.47
15884;BME280;8040;50.254;10.960;2022-08-19T09:37:54;97807.66;;;24.52;58.80
15884;BME280;8040;50.254;10.960;2022-08-19T09:40:39;97808.88;;;24.34;59.46
15884;BME280;8040;50.254;10.960;2022-08-19T09:43:23;97818.81;;;24.14;60.16
15884;BME280;8040;50.254;10.960;2022-08-19T09:46:08;97812.91;;;23.98;61.08
15884;BME280;8040;50.254;10.960;2022-08-19T09:48:53;97819.22;;;24.05;60.79
15884;BME280;8040;50.254;10.960;2022-08-19T09:51:37;97814.47;;;24.02;61.20
15884;BME280;8040;50.254;10.960;2022-08-19T09:54:21;97803.38;;;24.02;60.74
15884;BME280;8040;50.254;10.960;2022-08-19T09:57:05;97820.41;;;24.15;59.99
15884;BME280;8040;50.254;10.960;2022-08-19T09:59:49;97828.31;;;24.16;59.25
15884;BME280;8040;50.254;10.960;2022-08-19T10:02:34;97827.13;;;24.17;59.15
15884;BME280;8040;50.254;10.960;2022-08-19T10:05:18;97823.19;;;24.11;59.17
15884;BME280;8040;50.254;10.960;2022-08-19T10:08:22;97825.13;;;24.14;58.93
15884;BME280;8040;50.254;10.960;2022-08-19T10:11:06;97826.34;;;24.13;58.08
15884;BME280;8040;50.254;10.960;2022-08-19T10:13:52;97835.03;;;24.12;57.29
15884;BME280;8040;50.254;10.960;2022-08-19T10:16:36;97839.41;;;24.06;57.79
15884;BME280;8040;50.254;10.960;2022-08-19T10:19:20;97834.28;;;23.97;58.16
15884;BME280;8040;50.254;10.960;2022-08-19T10:22:06;97834.69;;;23.89;58.64
15884;BME280;8040;50.254;10.960;2022-08-19T10:24:50;97839.78;;;23.83;59.07
15884;BME280;8040;50.254;10.960;2022-08-19T10:27:35;97848.91;;;23.80;58.78
15884;BME280;8040;50.254;10.960;2022-08-19T10:30:20;97850.47;;;23.74;58.59
15884;BME280;8040;50.254;10.960;2022-08-19T10:33:05;97843.75;;;23.72;58.84
15884;BME280;8040;50.254;10.960;2022-08-19T10:35:58;97842.94;;;23.71;59.09
15884;BME280;8040;50.254;10.960;2022-08-19T10:38:43;97837.00;;;23.76;59.22
15884;BME280;8040;50.254;10.960;2022-08-19T10:41:30;97835.44;;;23.79;59.27
15884;BME280;8040;50.254;10.960;2022-08-19T10:44:15;97842.94;;;23.78;59.20
15884;BME280;8040;50.254;10.960;2022-08-19T10:47:01;97858.78;;;23.74;58.66
15884;BME280;8040;50.254;10.960;2022-08-19T10:49:45;97845.31;;;23.73;58.83
15884;BME280;8040;50.254;10.960;2022-08-19T10:52:48;97850.88;;;23.73;58.77
15884;BME280;8040;50.254;10.960;2022-08-19T10:55:32;97838.97;;;23.76;58.65
15884;BME280;8040;50.254;10.960;2022-08-19T10:58:35;97843.75;;;23.82;58.69
15884;BME280;8040;50.254;10.960;2022-08-19T11:01:19;97852.81;;;23.72;59.17
15884;BME280;8040;50.254;10.960;2022-08-19T11:04:04;97856.78;;;23.68;59.10
15884;BME280;8040;50.254;10.960;2022-08-19T11:06:48;97857.97;;;23.63;59.03
15884;BME280;8040;50.254;10.960;2022-08-19T11:09:36;97857.97;;;23.60;58.86
15884;BME280;8040;50.254;10.960;2022-08-19T11:12:21;97861.50;;;23.53;58.54
15884;BME280;8040;50.254;10.960;2022-08-19T11:15:06;97858.75;;;23.53;59.03
15884;BME280;8040;50.254;10.960;2022-08-19T11:17:51;97859.53;;;23.54;58.18
15884;BME280;8040;50.254;10.960;2022-08-19T11:20:36;97862.31;;;23.47;58.16
15884;BME280;8040;50.254;10.960;2022-08-19T11:23:20;97866.19;;;23.28;57.54
15884;BME280;8040;50.254;10.960;2022-08-19T11:26:04;97866.63;;;23.30;57.88
15884;BME280;8040;50.254;10.960;2022-08-19T11:28:49;97863.44;;;23.25;57.70
15884;BME280;8040;50.254;10.960;2022-08-19T11:31:36;97860.25;;;23.19;57.79
15884;BME280;8040;50.254;10.960;2022-08-19T11:34:24;97863.38;;;23.14;57.25
15884;BME280;8040;50.254;10.960;2022-08-19T11:37:09;97872.00;;;22.95;57.15
15884;BME280;8040;50.254;10.960;2022-08-19T11:39:53;97870.78;;;22.89;57.31
15884;BME280;8040;50.254;10.960;2022-08-19T11:42:37;97864.47;;;22.96;57.44
15884;BME280;8040;50.254;10.960;2022-08-19T11:45:39;97872.78;;;22.99;55.79
15884;BME280;8040;50.254;10.960;2022-08-19T11:48:23;97870.81;;;22.96;54.31
15884;BME280;8040;50.254;10.960;2022-08-19T11:51:10;97858.22;;;23.13;53.59
15884;BME280;8040;50.254;10.960;2022-08-19T11:53:55;97848.44;;;23.40;51.69
15884;BME280;8040;50.254;10.960;2022-08-19T11:56:40;97848.09;;;23.62;48.27
15884;BME280;8040;50.254;10.960;2022-08-19T11:59:24;97836.22;;;23.72;47.36
15884;BME280;8040;50.254;10.960;2022-08-19T12:02:08;97846.94;;;23.95;46.77
15884;BME280;8040;50.254;10.960;2022-08-19T12:04:52;97842.19;;;23.95;46.46
15884;BME280;8040;50.254;10.960;2022-08-19T12:07:36;97843.00;;;23.92;46.66
15884;BME280;8040;50.254;10.960;2022-08-19T12:10:20;97852.44;;;23.70;47.15
15884;BME280;8040;50.254;10.960;2022-08-19T12:13:04;97843.75;;;23.61;47.63
15884;BME280;8040;50.254;10.960;2022-08-19T12:15:48;97844.50;;;23.51;48.20
15884;BME280;8040;50.254;10.960;2022-08-19T12:18:32;97844.50;;;23.62;48.32
15884;BME280;8040;50.254;10.960;2022-08-19T12:21:17;97840.97;;;23.58;48.50
15884;BME280;8040;50.254;10.960;2022-08-19T12:24:05;97834.25;;;23.73;48.53
15884;BME280;8040;50.254;10.960;2022-08-19T12:26:49;97838.19;;;23.82;48.55
15884;BME280;8040;50.254;10.960;2022-08-19T12:29:33;97835.06;;;23.94;48.31
15884;BME280;8040;50.254;10.960;2022-08-19T12:32:17;97838.63;;;23.88;48.02
15884;BME280;8040;50.254;10.960;2022-08-19T12:35:02;97840.16;;;23.78;47.92
15884;BME280;8040;50.254;10.960;2022-08-19T12:37:46;97848.88;;;23.70;48.43
15884;BME280;8040;50.254;10.960;2022-08-19T12:40:31;97846.91;;;23.56;48.83
15884;BME280;8040;50.254;10.960;2022-08-19T12:43:15;97853.19;;;23.46;49.07
15884;BME280;8040;50.254;10.960;2022-08-19T12:46:04;97842.94;;;23.54;48.96
15884;BME280;8040;50.254;10.960;2022-08-19T12:48:48;97851.63;;;23.70;48.82
15884;BME280;8040;50.254;10.960;2022-08-19T12:51:32;97839.78;;;23.80;48.23
15884;BME280;8040;50.254;10.960;2022-08-19T12:54:16;97837.00;;;23.83;47.85
15884;BME280;8040;50.254;10.960;2022-08-19T12:57:00;97840.16;;;23.82;48.09
15884;BME280;8040;50.254;10.960;2022-08-19T12:59:44;97842.53;;;23.87;47.74
15884;BME280;8040;50.254;10.960;2022-08-19T13:02:28;97841.41;;;23.98;47.76
15884;BME280;8040;50.254;10.960;2022-08-19T13:05:14;97840.59;;;23.91;48.06
15884;BME280;8040;50.254;10.960;2022-08-19T13:07:59;97834.69;;;23.96;48.64
15884;BME280;8040;50.254;10.960;2022-08-19T13:10:43;97839.03;;;23.97;48.06
15884;BME280;8040;50.254;10.960;2022-08-19T13:13:27;97839.41;;;24.02;48.41
15884;BME280;8040;50.254;10.960;2022-08-19T13:16:12;97835.84;;;24.05;48.11
15884;BME280;8040;50.254;10.960;2022-08-19T13:18:56;97843.75;;;23.93;47.78
15884;BME280;8040;50.254;10.960;2022-08-19T13:21:40;97840.59;;;23.91;48.04
15884;BME280;8040;50.254;10.960;2022-08-19T13:24:24;97840.22;;;23.92;48.00
15884;BME280;8040;50.254;10.960;2022-08-19T13:27:08;97840.59;;;23.94;48.07
15884;BME280;8040;50.254;10.960;2022-08-19T13:29:52;97846.94;;;23.91;47.96
15884;BME280;8040;50.254;10.960;2022-08-19T13:32:55;97852.84;;;23.86;47.86
15884;BME280;8040;50.254;10.960;2022-08-19T13:35:58;97858.78;;;23.81;47.63
15884;BME280;8040;50.254;10.960;2022-08-19T13:38:44;97862.31;;;23.71;47.74
15884;BME280;8040;50.254;10.960;2022-08-19T13:41:29;97860.34;;;23.68;47.63
15884;BME280;8040;50.254;10.960;2022-08-19T13:44:13;97852.81;;;23.65;48.10
15884;BME280;8040;50.254;10.960;2022-08-19T13:47:02;97856.41;;;23.66;47.98
15884;BME280;8040;50.254;10.960;2022-08-19T13:49:49;97859.56;;;23.64;47.98
15884;BME280;8040;50.254;10.960;2022-08-19T13:52:33;97864.69;;;23.55;47.71
15884;BME280;8040;50.254;10.960;2022-08-19T13:55:17;97855.59;;;23.55;47.82
15884;BME280;8040;50.254;10.960;2022-08-19T13:58:02;97859.53;;;23.50;47.98
15884;BME280;8040;50.254;10.960;2022-08-19T14:00:46;97857.97;;;23.56;48.12
15884;BME280;8040;50.254;10.960;2022-08-19T14:03:30;97855.59;;;23.58;48.36
15884;BME280;8040;50.254;10.960;2022-08-19T14:06:14;97856.78;;;23.61;48.31
15884;BME280;8040;50.254;10.960;2022-08-19T14:08:58;97864.28;;;23.53;48.05
15884;BME280;8040;50.254;10.960;2022-08-19T14:11:42;97855.97;;;23.46;48.45
15884;BME280;8040;50.254;10.960;2022-08-19T14:14:28;97863.50;;;23.46;48.49
15884;BME280;8040;50.254;10.960;2022-08-19T14:17:13;97864.25;;;23.36;48.68
15884;BME280;8040;50.254;10.960;2022-08-19T14:20:00;97865.81;;;23.26;49.20
15884;BME280;8040;50.254;10.960;2022-08-19T14:22:48;97864.22;;;23.22;49.31
15884;BME280;8040;50.254;10.960;2022-08-19T14:25:32;97863.81;;;23.27;49.53
15884;BME280;8040;50.254;10.960;2022-08-19T14:28:17;97865.44;;;23.28;49.19
15884;BME280;8040;50.254;10.960;2022-08-19T14:31:02;97857.50;;;23.26;49.36
15884;BME280;8040;50.254;10.960;2022-08-19T14:33:46;97852.75;;;23.23;49.53
15884;BME280;8040;50.254;10.960;2022-08-19T14:36:31;97844.03;;;23.21;49.60
15884;BME280;8040;50.254;10.960;2022-08-19T14:39:18;97846.84;;;23.32;49.72
15884;BME280;8040;50.254;10.960;2022-08-19T14:42:05;97846.06;;;23.42;49.16
15884;BME280;8040;50.254;10.960;2022-08-19T14:44:51;97846.84;;;23.42;48.73